Time;durP1;ratioP1;P1;durP2;ratioP2;P2;SDS_P1;SDS_P2;PMS_P1;PMS_P2;Temp;Humidity;BMP_temperature;BMP_pressure;BME280_temperature;BME280_humidity;BME280_pressure;Samples;Min_cycle;Max_cycle;Signal;HPM_P1;HPM_P2
2022/12/16 00:02:28;;;;;;;127.95;49.08;;;;;;;-7.55;100.00;100413.52;5185925;55;1145289;-65
2022/12/16 00:07:34;;;;;;;152.03;57.37;;;;;;;-7.54;100.00;100406.24;5141831;56;1145111;-69
2022/12/16 00:12:40;;;;;;;162.03;59.50;;;;;;;-7.56;100.00;100427.65;5121267;55;1145315;-72
2022/12/16 00:17:45;;;;;;;126.57;47.50;;;;;;;-7.65;100.00;100434.98;5160503;55;1145084;-69
2022/12/16 00:22:53;;;;;;;113.70;44.97;;;;;;;-7.63;100.00;100445.22;5232982;55;1145085;-68
2022/12/16 00:27:58;;;;;;;114.23;43.47;;;;;;;-7.69;100.00;100455.54;5217704;55;1145046;-68
2022/12/16 00:33:05;;;;;;;140.17;48.73;;;;;;;-7.65;100.00;100449.11;5189077;55;1145022;-69
2022/12/16 00:38:11;;;;;;;125.70;46.80;;;;;;;-7.68;100.00;100455.97;5087473;55;1145233;-73
2022/12/16 00:43:16;;;;;;;144.07;53.50;;;;;;;-7.67;100.00;100464.95;5043781;55;1145343;-74
2022/12/16 00:48:23;;;;;;;131.60;50.80;;;;;;;-7.67;100.00;100458.95;5038806;56;1145688;-71
2022/12/16 00:53:31;;;;;;;121.34;48.04;;;;;;;-7.65;100.00;100461.09;5057280;56;1145671;-68
2022/12/16 00:58:38;;;;;;;128.10;50.40;;;;;;;-7.60;100.00;100473.03;5063659;56;1154890;-69
2022/12/16 01:03:44;;;;;;;132.30;49.57;;;;;;;-7.57;100.00;100485.86;5090192;56;1145187;-73
2022/12/16 01:08:49;;;;;;;135.30;50.63;;;;;;;-7.57;100.00;100487.58;5127684;55;1145292;-69
2022/12/16 01:13:55;;;;;;;128.77;47.93;;;;;;;-7.65;100.00;100477.78;5183413;55;1145182;-71
2022/12/16 01:19:01;;;;;;;136.92;51.83;;;;;;;-7.54;100.00;100475.58;5176946;55;1145164;-70
2022/12/16 01:24:07;;;;;;;133.50;52.40;;;;;;;-7.42;100.00;100472.52;5106467;56;1145423;-69
2022/12/16 01:29:12;;;;;;;122.87;46.97;;;;;;;-7.33;100.00;100462.20;5105682;56;1145134;-68
2022/12/16 01:34:18;;;;;;;119.60;47.07;;;;;;;-7.29;100.00;100457.45;5079782;55;1145154;-73
2022/12/16 01:39:28;;;;;;;124.30;49.10;;;;;;;-7.24;100.00;100448.86;5168296;55;1145155;-71
2022/12/16 01:44:35;;;;;;;126.20;47.13;;;;;;;-7.31;100.00;100448.89;5106807;54;1145736;-69
2022/12/16 01:49:57;;;;;;;134.22;51.60;;;;;;;-7.33;100.00;100446.33;5041689;55;1145238;-66
2022/12/16 01:55:11;;;;;;;144.68;52.05;;;;;;;-7.47;100.00;100445.13;5100779;55;1145400;-69
2022/12/16 02:00:17;;;;;;;142.27;51.23;;;;;;;-7.48;100.00;100444.70;5098348;56;1145341;-68
2022/12/16 02:05:23;;;;;;;148.60;50.10;;;;;;;-7.58;100.00;100447.34;5063223;55;1145600;-69
2022/12/16 02:10:45;;;;;;;164.77;54.37;;;;;;;-7.64;100.00;100433.27;5052686;56;1145058;-72
2022/12/16 02:15:56;;;;;;;137.23;53.47;;;;;;;-7.69;100.00;100433.29;5057955;55;1145149;-70
2022/12/16 02:21:29;;;;;;;158.93;56.53;;;;;;;-7.67;100.00;100434.14;5055333;56;1145167;-72
2022/12/16 02:26:55;;;;;;;;;;;;;;;-7.61;100.00;100426.81;5089706;56;1145275;-71
2022/12/16 02:32:23;;;;;;;186.13;58.30;;;;;;;-7.55;100.00;100422.51;5143761;56;976175;-73
2022/12/16 02:37:44;;;;;;;196.13;57.77;;;;;;;-7.48;100.00;100420.73;5044884;56;1143020;-70
2022/12/16 02:42:54;;;;;;;167.40;55.17;;;;;;;-7.47;100.00;100418.59;5032497;57;1145145;-73
2022/12/16 02:48:00;;;;;;;166.20;57.93;;;;;;;-7.58;100.00;100409.68;5052203;57;1145099;-75
2022/12/16 02:53:08;;;;;;;150.30;54.30;;;;;;;-7.78;100.00;100406.79;5028527;57;1145139;-69
2022/12/16 02:58:30;;;;;;;163.80;57.40;;;;;;;-7.78;100.00;100408.92;5033753;56;1145189;-69
2022/12/16 03:03:58;;;;;;;161.17;57.97;;;;;;;-7.85;100.00;100402.13;5043269;56;1145172;-72
2022/12/16 03:09:09;;;;;;;158.17;58.03;;;;;;;-7.91;100.00;100408.56;5051447;57;1145204;-68
2022/12/16 03:14:18;;;;;;;157.37;56.97;;;;;;;-7.88;100.00;100391.88;5032478;56;1145325;-72
2022/12/16 03:19:25;;;;;;;172.73;57.80;;;;;;;-7.84;100.00;100396.14;5032763;56;1145146;-71
2022/12/16 03:24:31;;;;;;;187.07;61.87;;;;;;;-7.90;100.00;100373.92;5105401;55;1145126;-71
2022/12/16 03:29:53;;;;;;;167.80;58.73;;;;;;;-7.89;100.00;100378.19;5192991;55;1145187;-71
2022/12/16 03:35:03;;;;;;;150.95;52.60;;;;;;;-7.82;100.00;100384.16;5109451;55;1145074;-65
2022/12/16 03:40:11;;;;;;;138.88;51.60;;;;;;;-7.90;100.00;100387.17;5080406;56;1145035;-74
2022/12/16 03:45:21;;;;;;;139.80;49.47;;;;;;;-7.80;100.00;100377.31;5102014;56;1145215;-67
2022/12/16 03:50:31;;;;;;;143.45;53.42;;;;;;;-7.87;100.00;100382.03;5081597;56;1145135;-67
2022/12/16 03:55:37;;;;;;;135.73;49.03;;;;;;;-7.93;100.00;100364.09;5079425;56;1145260;-72
2022/12/16 04:00:42;;;;;;;163.75;58.63;;;;;;;-8.04;100.00;100367.15;5121836;55;1145118;-70
2022/12/16 04:05:48;;;;;;;165.43;61.70;;;;;;;-8.06;100.00;100380.41;5079732;56;1145144;-70
